Time;durP1;ratioP1;P1;durP2;ratioP2;P2;SDS_P1;SDS_P2;PMS_P1;PMS_P2;Temp;Humidity;BMP_temperature;BMP_pressure;BME280_temperature;BME280_humidity;BME280_pressure;Samples;Min_cycle;Max_cycle;Signal;HPM_P1;HPM_P2
2023/10/04 00:05:43;;;;;;;;;;;;;;;12.79;77.05;101664.53;15593387;28;19921;-53
2023/10/04 00:13:18;;;;;;;;;;;;;;;13.09;76.32;101673.09;15611805;28;19921;-56
2023/10/04 00:20:51;;;;;;;;;;;;;;;12.78;76.82;101670.94;15611702;28;20470;-53
2023/10/04 00:28:29;;;;;;;;;;;;;;;12.83;76.17;101676.56;15596546;23;19953;-49
2023/10/04 00:36:05;;;;;;;;;;;;;;;12.64;76.23;101694.31;15537183;28;19921;-52
2023/10/04 00:43:49;;;;;;;;;;;;;;;12.69;76.52;101702.63;15554699;28;20008;-50
2023/10/04 00:51:23;;;;;;;;;;;;;;;12.90;75.78;101701.66;15550549;28;19922;-48
2023/10/04 00:58:59;;;;;;;;;;;;;;;12.86;75.82;101702.25;15532436;28;19925;-52
2023/10/04 01:06:35;;;;;;;;;;;;;;;12.75;75.37;101704.50;15537393;28;19964;-52
2023/10/04 01:14:15;;;;;;;;;;;;;;;12.81;75.25;101697.47;15525162;28;20024;-52
2023/10/04 01:21:48;;;;;;;;;;;;;;;12.56;75.97;101707.94;15541310;28;20341;-50
2023/10/04 01:29:22;;;;;;;;;;;;;;;12.85;74.55;101696.03;15547618;28;19959;-52
2023/10/04 01:36:55;;;;;;;;;;;;;;;12.36;76.10;101693.53;15546600;28;19925;-52
2023/10/04 01:44:30;;;;;;;;;;;;;;;12.57;75.34;101695.28;15538084;28;20023;-51
2023/10/04 01:52:05;;;;;;;;;;;;;;;12.06;77.28;101695.63;15545509;28;19925;-51
2023/10/04 01:59:44;;;;;;;;;;;;;;;12.44;76.05;101683.41;15541833;28;19929;-50
2023/10/04 02:07:21;;;;;;;;;;;;;;;12.62;74.78;101685.59;15545707;28;19922;-51
2023/10/04 02:14:56;;;;;;;;;;;;;;;12.32;75.95;101689.59;15537774;28;19922;-50
2023/10/04 02:22:31;;;;;;;;;;;;;;;12.44;75.81;101694.19;15544239;28;19988;-52
2023/10/04 02:30:13;;;;;;;;;;;;;;;12.11;76.86;101701.25;15542757;28;19921;-51
2023/10/04 02:37:48;;;;;;;;;;;;;;;12.60;74.55;101682.28;15536773;28;19921;-51
2023/10/04 02:45:24;;;;;;;;;;;;;;;12.47;74.84;101692.97;15518016;28;20393;-49
2023/10/04 02:52:58;;;;;;;;;;;;;;;12.32;75.69;101690.41;15541120;28;19956;-49
2023/10/04 03:00:44;;;;;;;;;;;;;;;12.45;74.76;101682.41;15537898;28;19925;-50
2023/10/04 03:08:18;;;;;;;;;;;;;;;11.96;77.06;101701.34;15536814;28;19922;-50
2023/10/04 03:15:53;;;;;;;;;;;;;;;12.48;74.49;101692.75;15541451;28;19921;-50
2023/10/04 03:23:32;;;;;;;;;;;;;;;12.32;75.09;101697.66;15541181;28;19933;-47
2023/10/04 03:31:14;;;;;;;;;;;;;;;12.35;74.40;101703.47;15541145;28;19929;-53
2023/10/04 03:38:49;;;;;;;;;;;;;;;12.03;75.94;101715.69;15536761;28;19921;-51
2023/10/04 03:46:25;;;;;;;;;;;;;;;11.84;76.67;101719.03;15546891;28;20390;-49
2023/10/04 03:54:07;;;;;;;;;;;;;;;11.73;76.99;101726.59;15529924;28;20289;-47
2023/10/04 04:01:42;;;;;;;;;;;;;;;11.82;76.21;101729.16;15534191;28;19922;-51
2023/10/04 04:09:15;;;;;;;;;;;;;;;11.99;75.19;101722.50;15535298;28;19921;-52
2023/10/04 04:16:51;;;;;;;;;;;;;;;11.88;75.63;101725.69;15538827;28;20211;-51
2023/10/04 04:24:27;;;;;;;;;;;;;;;11.60;77.25;101736.38;15538822;28;19921;-50
2023/10/04 04:32:06;;;;;;;;;;;;;;;11.83;75.96;101745.09;15538006;28;19925;-50
2023/10/04 04:39:40;;;;;;;;;;;;;;;11.74;76.29;101751.63;15537632;28;19921;-52
2023/10/04 04:47:17;;;;;;;;;;;;;;;12.03;74.98;101734.53;15530192;28;19940;-51
2023/10/04 04:54:51;;;;;;;;;;;;;;;11.47;76.84;101724.50;15535547;28;20024;-51
2023/10/04 05:02:32;;;;;;;;;;;;;;;11.84;75.62;101737.88;15519583;28;19929;-51
2023/10/04 05:10:10;;;;;;;;;;;;;;;11.98;75.49;101750.41;15554631;28;20016;-50
2023/10/04 05:17:45;;;;;;;;;;;;;;;11.87;75.59;101737.50;15546805;28;19925;-51
2023/10/04 05:25:20;;;;;;;;;;;;;;;11.67;76.18;101756.94;15554479;28;19968;-51
2023/10/04 05:32:55;;;;;;;;;;;;;;;11.83;75.56;101763.94;15537075;28;19925;-50
2023/10/04 05:40:28;;;;;;;;;;;;;;;11.83;75.41;101766.63;15513298;28;19925;-51
2023/10/04 05:48:05;;;;;;;;;;;;;;;11.66;76.39;101767.91;15553231;28;19928;-50
2023/10/04 05:55:39;;;;;;;;;;;;;;;12.30;73.92;101778.59;15535899;28;19984;-51
2023/10/04 06:03:15;;;;;;;;;;;;;;;12.47;73.31;101787.22;15490190;28;19921;-49
2023/10/04 06:10:50;;;;;;;;;;;;;;;12.43;73.54;101794.84;15502269;28;19922;-48
2023/10/04 06:18:28;;;;;;;;;;;;;;;12.82;71.97;101801.50;15501422;28;19944;-49
2023/10/04 06:26:01;;;;;;;;;;;;;;;12.61;72.90;101815.91;15484237;28;19928;-48
2023/10/04 06:33:35;;;;;;;;;;;;;;;12.58;73.98;101827.06;15511127;28;20220;-47
2023/10/04 06:41:09;;;;;;;;;;;;;;;12.58;74.05;101840.53;15509892;28;19922;-48
2023/10/04 06:48:43;;;;;;;;;;;;;;;12.57;73.76;101840.72;15557065;28;20402;-48
2023/10/04 06:56:16;;;;;;;;;;;;;;;13.09;72.79;101856.38;15552153;28;19957;-50
2023/10/04 07:03:51;;;;;;;;;;;;;;;13.03;72.11;101862.59;15559877;28;19921;-49
2023/10/04 07:11:25;;;;;;;;;;;;;;;13.71;70.63;101868.94;15559978;28;20359;-54
2023/10/04 07:18:59;;;;;;;;;;;;;;;13.43;70.74;101874.44;15541064;28;19933;-49
2023/10/04 07:26:35;;;;;;;;;;;;;;;13.63;70.86;101884.47;15557959;28;19929;-50
2023/10/04 07:34:10;;;;;;;;;;;;;;;13.77;70.91;101889.69;15557577;28;20004;-49
2023/10/04 07:41:43;;;;;;;;;;;;;;;13.96;70.22;101896.19;15557126;28;19929;-49
2023/10/04 07:49:18;;;;;;;;;;;;;;;13.81;70.24;101895.53;15556735;28;19928;-49
2023/10/04 07:56:51;;;;;;;;;;;;;;;14.35;69.28;101897.25;15552115;28;20004;-51
2023/10/04 08:04:28;;;;;;;;;;;;;;;14.27;69.71;101898.31;15538442;28;19921;-50
2023/10/04 08:12:01;;;;;;;;;;;;;;;14.39;69.09;101903.91;15556716;28;20302;-49
2023/10/04 08:19:36;;;;;;;;;;;;;;;14.36;69.11;101912.44;15555972;28;20037;-49
2023/10/04 08:27:10;;;;;;;;;;;;;;;14.73;68.04;101916.41;15555339;28;19921;-50
2023/10/04 08:34:45;;;;;;;;;;;;;;;15.02;66.97;101925.13;15555627;28;19929;-49
2023/10/04 08:42:19;;;;;;;;;;;;;;;14.96;67.41;101926.78;15537362;28;19922;-49
2023/10/04 08:49:55;;;;;;;;;;;;;;;15.23;67.45;101937.56;15554760;28;19922;-48
2023/10/04 08:57:29;;;;;;;;;;;;;;;15.02;67.29;101941.34;15519164;28;19925;-49
2023/10/04 09:05:04;;;;;;;;;;;;;;;15.39;67.01;101944.38;15553092;28;20032;-50
2023/10/04 09:12:38;;;;;;;;;;;;;;;15.72;65.77;101952.44;15543459;28;19976;-49
2023/10/04 09:20:15;;;;;;;;;;;;;;;15.61;65.70;101959.28;15553814;28;19991;-49
2023/10/04 09:27:53;;;;;;;;;;;;;;;15.64;65.12;101964.31;15535999;28;19925;-50
2023/10/04 09:35:41;;;;;;;;;;;;;;;15.65;64.45;101963.28;15554217;28;20016;-48
2023/10/04 09:43:14;;;;;;;;;;;;;;;15.98;63.77;101949.56;15564169;28;19922;-50
2023/10/04 09:50:50;;;;;;;;;;;;;;;16.25;62.54;101957.56;15562876;28;20156;-50
2023/10/04 09:58:24;;;;;;;;;;;;;;;15.62;63.37;101943.88;15541870;28;20450;-48
2023/10/04 10:06:00;;;;;;;;;;;;;;;16.27;62.01;101966.28;15544548;28;19921;-48
2023/10/04 10:13:36;;;;;;;;;;;;;;;16.32;62.12;101980.03;15561085;28;19921;-49
2023/10/04 10:21:12;;;;;;;;;;;;;;;16.08;62.28;101981.59;15560829;28;20016;-49
2023/10/04 10:28:51;;;;;;;;;;;;;;;15.40;63.41;101981.22;15543895;28;19925;-50
2023/10/04 10:36:27;;;;;;;;;;;;;;;17.07;60.03;101993.69;15560296;28;19928;-52
2023/10/04 10:44:23;;;;;;;;;;;;;;;16.62;59.60;101987.53;15542882;28;19928;-48
2023/10/04 10:52:00;;;;;;;;;;;;;;;16.04;61.80;101991.22;15556735;28;20529;-52
2023/10/04 10:59:34;;;;;;;;;;;;;;;16.55;61.10;101984.84;15555536;28;20021;-51
2023/10/04 11:07:11;;;;;;;;;;;;;;;16.85;57.64;101976.97;15561713;28;19921;-51
2023/10/04 11:14:46;;;;;;;;;;;;;;;16.87;57.23;101988.41;15561812;28;19929;-51
2023/10/04 11:22:20;;;;;;;;;;;;;;;16.07;60.06;102001.63;15560268;28;20306;-50
2023/10/04 11:29:55;;;;;;;;;;;;;;;15.70;62.75;101993.22;15564866;28;20370;-50
2023/10/04 11:37:29;;;;;;;;;;;;;;;15.58;63.03;101984.09;15572351;28;19925;-52
2023/10/04 11:45:16;;;;;;;;;;;;;;;16.07;59.95;101997.03;15519530;28;20474;-51
2023/10/04 11:52:52;;;;;;;;;;;;;;;16.12;60.13;101996.38;15528253;28;19921;-52
2023/10/04 12:00:27;;;;;;;;;;;;;;;16.76;58.46;101987.25;15539944;28;19922;-51
2023/10/04 12:08:01;;;;;;;;;;;;;;;17.80;55.95;101974.72;15563414;28;19926;-55
2023/10/04 12:15:35;;;;;;;;;;;;;;;16.87;57.20;101974.84;15560610;28;19921;-51
2023/10/04 12:23:10;;;;;;;;;;;;;;;16.77;57.57;101982.66;15558580;28;20407;-53
2023/10/04 12:30:43;;;;;;;;;;;;;;;16.68;57.09;101973.09;15541789;28;19921;-49
2023/10/04 12:38:18;;;;;;;;;;;;;;;16.59;57.82;101989.63;15551607;28;20383;-47
2023/10/04 12:45:53;;;;;;;;;;;;;;;16.84;56.88;101980.72;15555401;28;19929;-48
2023/10/04 12:53:28;;;;;;;;;;;;;;;16.59;58.32;101975.25;15552861;28;20442;-47
2023/10/04 13:01:05;;;;;;;;;;;;;;;16.49;58.09;101969.47;15549070;28;20025;-46
2023/10/04 13:08:39;;;;;;;;;;;;;;;16.47;58.20;101972.44;15535032;28;19921;-46
2023/10/04 13:16:12;;;;;;;;;;;;;;;16.58;57.57;101955.44;15545309;28;19971;-52
2023/10/04 13:23:47;;;;;;;;;;;;;;;17.54;56.82;101951.41;15564287;28;19926;-48
2023/10/04 13:31:19;;;;;;;;;;;;;;;17.61;55.98;101943.19;15563523;28;19928;-48
2023/10/04 13:38:54;;;;;;;;;;;;;;;17.69;56.10;101933.91;15520284;28;20279;-49
2023/10/04 13:46:29;;;;;;;;;;;;;;;17.44;54.72;101931.28;15508475;28;20560;-49
2023/10/04 13:54:04;;;;;;;;;;;;;;;17.82;55.06;101941.91;15544299;28;20382;-49
2023/10/04 14:01:41;;;;;;;;;;;;;;;16.82;55.12;101934.81;15554015;28;19921;-49
2023/10/04 14:09:21;;;;;;;;;;;;;;;17.14;54.76;101936.63;15561814;28;19991;-46
2023/10/04 14:17:04;;;;;;;;;;;;;;;17.22;55.46;101917.34;15560488;28;19921;-50
2023/10/04 14:24:42;;;;;;;;;;;;;;;17.16;55.57;101926.38;15560547;28;19964;-47
2023/10/04 14:32:16;;;;;;;;;;;;;;;17.09;56.58;101929.16;15543454;28;19921;-50
2023/10/04 14:39:53;;;;;;;;;;;;;;;17.03;55.93;101930.06;15560004;28;20310;-49
2023/10/04 14:47:27;;;;;;;;;;;;;;;16.66;56.78;101924.53;15528100;28;19941;-48
2023/10/04 14:55:06;;;;;;;;;;;;;;;16.93;56.80;101916.19;15541844;28;19983;-49
2023/10/04 15:02:39;;;;;;;;;;;;;;;17.04;57.26;101910.00;15538064;28;19921;-50
2023/10/04 15:10:16;;;;;;;;;;;;;;;16.98;57.96;101916.34;15559722;28;19999;-52
2023/10/04 15:17:50;;;;;;;;;;;;;;;16.65;57.14;101908.50;15559591;28;19922;-49
2023/10/04 15:25:25;;;;;;;;;;;;;;;16.57;57.41;101907.72;15542119;28;19925;-49
2023/10/04 15:32:59;;;;;;;;;;;;;;;16.51;57.39;101915.91;15559251;28;20437;-48
2023/10/04 15:40:35;;;;;;;;;;;;;;;16.66;57.20;101921.00;15557287;28;19925;-47
2023/10/04 15:48:11;;;;;;;;;;;;;;;16.67;56.87;101925.34;15557422;28;20606;-50
2023/10/04 15:55:47;;;;;;;;;;;;;;;16.76;58.04;101924.06;15556934;28;19921;-51
2023/10/04 16:03:21;;;;;;;;;;;;;;;16.44;58.95;101932.19;15551978;28;19956;-49
2023/10/04 16:10:56;;;;;;;;;;;;;;;16.26;58.39;101935.66;15556032;28;20397;-48
2023/10/04 16:18:30;;;;;;;;;;;;;;;16.44;58.60;101934.09;15555323;28;19967;-50
2023/10/04 16:26:05;;;;;;;;;;;;;;;16.52;58.13;101939.25;15537409;28;19932;-48
2023/10/04 16:33:39;;;;;;;;;;;;;;;16.19;58.90;101932.19;15555176;28;20319;-49
2023/10/04 16:41:13;;;;;;;;;;;;;;;16.04;59.39;101932.47;15554477;28;19928;-49
2023/10/04 16:48:47;;;;;;;;;;;;;;;16.17;59.21;101933.44;15535477;28;19928;-52
2023/10/04 16:56:21;;;;;;;;;;;;;;;15.98;60.16;101935.22;15533327;28;20243;-48
2023/10/04 17:03:54;;;;;;;;;;;;;;;15.65;61.19;101944.31;15553445;28;20294;-51
2023/10/04 17:11:29;;;;;;;;;;;;;;;15.78;61.21;101938.03;15553608;28;19944;-51
2023/10/04 17:19:02;;;;;;;;;;;;;;;15.73;61.58;101946.78;15545937;28;19925;-52
2023/10/04 17:26:36;;;;;;;;;;;;;;;15.94;59.46;101942.09;15552772;28;20337;-55
2023/10/04 17:34:10;;;;;;;;;;;;;;;15.22;61.17;101939.44;15536558;28;19926;-51
2023/10/04 17:41:45;;;;;;;;;;;;;;;15.71;59.97;101943.44;15533755;28;19928;-50
2023/10/04 17:49:18;;;;;;;;;;;;;;;15.84;58.67;101934.44;15552683;28;19921;-49
2023/10/04 17:56:53;;;;;;;;;;;;;;;15.26;60.01;101929.84;15549023;28;20161;-49
2023/10/04 18:04:26;;;;;;;;;;;;;;;15.16;61.00;101934.88;15562982;28;19922;-49
2023/10/04 18:12:01;;;;;;;;;;;;;;;15.45;59.78;101938.13;15545384;28;19968;-52
2023/10/04 18:19:34;;;;;;;;;;;;;;;15.42;60.36;101944.78;15562749;28;19932;-52
2023/10/04 18:27:08;;;;;;;;;;;;;;;15.64;59.17;101945.38;15596608;23;20288;-45
2023/10/04 18:34:41;;;;;;;;;;;;;;;15.84;58.97;101949.88;15641246;28;20325;-48
2023/10/04 18:42:16;;;;;;;;;;;;;;;15.83;58.42;101938.22;15683041;28;20297;-50
2023/10/04 18:49:48;;;;;;;;;;;;;;;15.65;59.61;101944.31;15665465;28;19928;-48
2023/10/04 18:57:23;;;;;;;;;;;;;;;15.18;60.36;101937.38;15670499;28;19925;-47
2023/10/04 19:04:56;;;;;;;;;;;;;;;15.21;60.62;101937.78;15652215;28;19925;-49
2023/10/04 19:12:33;;;;;;;;;;;;;;;15.01;61.29;101939.66;15647027;28;19924;-53
2023/10/04 19:20:11;;;;;;;;;;;;;;;14.84;60.91;101930.34;15681863;28;19928;-48
2023/10/04 19:27:46;;;;;;;;;;;;;;;14.62;61.86;101929.72;15681047;28;19975;-49
2023/10/04 19:35:19;;;;;;;;;;;;;;;14.78;61.47;101935.56;15662827;28;19924;-49
2023/10/04 19:42:54;;;;;;;;;;;;;;;14.70;62.08;101929.53;15680156;28;19975;-48
2023/10/04 19:50:27;;;;;;;;;;;;;;;14.95;61.75;101930.53;15662701;28;20341;-48
2023/10/04 19:58:01;;;;;;;;;;;;;;;15.23;60.03;101919.44;15679345;28;19920;-51
2023/10/04 20:05:35;;;;;;;;;;;;;;;15.27;60.44;101917.16;15678403;28;19920;-49
2023/10/04 20:13:09;;;;;;;;;;;;;;;15.05;61.57;101916.59;15678668;28;19921;-49
2023/10/04 20:20:42;;;;;;;;;;;;;;;15.74;59.39;101913.25;15678151;28;19924;-47
2023/10/04 20:28:17;;;;;;;;;;;;;;;15.25;60.76;101901.16;15660654;28;20011;-49
2023/10/04 20:35:50;;;;;;;;;;;;;;;15.73;59.77;101906.19;15668830;28;19960;-47
2023/10/04 20:43:25;;;;;;;;;;;;;;;16.04;58.18;101896.41;15659347;28;19928;-48
2023/10/04 20:51:00;;;;;;;;;;;;;;;16.01;58.61;101886.88;15676807;28;19921;-48
2023/10/04 20:58:35;;;;;;;;;;;;;;;15.21;60.71;101894.50;15661990;28;20397;-50
2023/10/04 21:06:08;;;;;;;;;;;;;;;14.80;62.06;101881.28;15645976;28;20369;-48
2023/10/04 21:13:43;;;;;;;;;;;;;;;14.85;61.97;101872.53;15596604;28;19925;-53
2023/10/04 21:21:16;;;;;;;;;;;;;;;14.91;62.01;101852.75;15638452;28;20389;-51
2023/10/04 21:28:51;;;;;;;;;;;;;;;14.95;61.63;101848.59;15658545;28;19920;-51
2023/10/04 21:36:26;;;;;;;;;;;;;;;14.22;64.47;101857.59;15667262;28;19927;-48
2023/10/04 21:44:08;;;;;;;;;;;;;;;14.46;63.57;101842.63;15687294;28;19975;-49
2023/10/04 21:51:47;;;;;;;;;;;;;;;14.47;63.69;101840.75;15669267;28;20386;-49
2023/10/04 21:59:21;;;;;;;;;;;;;;;14.03;65.35;101820.59;15657571;28;20149;-48
2023/10/04 22:06:56;;;;;;;;;;;;;;;13.60;67.43;101817.41;15666032;28;19924;-48
2023/10/04 22:14:32;;;;;;;;;;;;;;;13.63;66.72;101807.06;15685773;28;19931;-48
2023/10/04 22:22:05;;;;;;;;;;;;;;;13.98;64.94;101798.78;15660564;28;19927;-47
2023/10/04 22:29:42;;;;;;;;;;;;;;;13.73;66.15;101791.28;15683552;28;19932;-50
2023/10/04 22:37:15;;;;;;;;;;;;;;;13.94;65.89;101792.13;15667717;28;20015;-48
2023/10/04 22:44:50;;;;;;;;;;;;;;;13.65;66.08;101796.03;15666586;28;19925;-47
2023/10/04 22:52:23;;;;;;;;;;;;;;;13.76;65.53;101803.56;15683679;28;20385;-49
2023/10/04 22:59:58;;;;;;;;;;;;;;;13.46;66.51;101795.78;15677909;28;20033;-47
2023/10/04 23:07:33;;;;;;;;;;;;;;;13.38;66.75;101770.88;15682594;28;19921;-48
2023/10/04 23:15:13;;;;;;;;;;;;;;;13.43;66.12;101771.09;15682510;28;19967;-48
2023/10/04 23:22:50;;;;;;;;;;;;;;;13.23;67.63;101771.88;15681483;28;19920;-48
2023/10/04 23:30:26;;;;;;;;;;;;;;;12.74;69.18;101770.19;15681367;28;20012;-48
2023/10/04 23:38:12;;;;;;;;;;;;;;;13.21;67.14;101768.53;15680970;28;19920;-48
2023/10/04 23:45:51;;;;;;;;;;;;;;;13.22;67.23;101770.22;15681771;28;20302;-47
2023/10/04 23:53:41;;;;;;;;;;;;;;;13.02;67.72;101769.28;15682956;28;19920;-47
